Time;durP1;ratioP1;P1;durP2;ratioP2;P2;SDS_P1;SDS_P2;PMS_P1;PMS_P2;Temp;Humidity;BMP_temperature;BMP_pressure;BME280_temperature;BME280_humidity;BME280_pressure;Samples;Min_cycle;Max_cycle;Signal;HPM_P1;HPM_P2
2023/08/25 00:00:29;;;;;;;5.43;2.53;;;;;;;17.62;100.00;92976.25;2065830;28;20027;-88
2023/08/25 00:01:30;;;;;;;4.05;2.38;;;;;;;17.54;100.00;92981.25;2069772;28;20031;-86
2023/08/25 00:02:31;;;;;;;7.95;2.95;;;;;;;17.56;100.00;92991.59;2066088;28;20022;-84
2023/08/25 00:03:33;;;;;;;3.65;2.40;;;;;;;17.56;100.00;92984.25;2064764;28;20019;-84
2023/08/25 00:04:34;;;;;;;3.85;2.58;;;;;;;17.68;100.00;92985.19;2064284;28;20076;-84
2023/08/25 00:05:39;;;;;;;2.95;2.25;;;;;;;17.51;100.00;92986.81;2065947;28;20101;-84
2023/08/25 00:06:40;;;;;;;4.20;2.50;;;;;;;17.58;100.00;92975.66;2071062;28;20026;-84
2023/08/25 00:07:41;;;;;;;2.90;2.45;;;;;;;17.57;100.00;92969.53;2074174;28;20113;-88
2023/08/25 00:08:42;;;;;;;5.43;2.65;;;;;;;17.48;100.00;92969.59;2058264;28;20031;-88
2023/08/25 00:09:45;;;;;;;6.30;3.00;;;;;;;17.53;100.00;92962.81;2057945;28;20051;-88
2023/08/25 00:10:47;;;;;;;3.30;2.33;;;;;;;17.44;100.00;92963.63;2066634;28;20466;-86
2023/08/25 00:11:48;;;;;;;3.63;2.40;;;;;;;17.53;100.00;92955.44;2071628;28;20025;-86
2023/08/25 00:12:49;;;;;;;4.32;2.53;;;;;;;17.40;100.00;92971.16;2057643;28;20054;-85
2023/08/25 00:13:50;;;;;;;4.20;2.33;;;;;;;17.40;100.00;92971.16;2057810;28;20415;-87
2023/08/25 00:14:51;;;;;;;4.50;2.50;;;;;;;17.49;100.00;92976.50;2053515;28;20542;-87
2023/08/25 00:15:52;;;;;;;2.80;2.58;;;;;;;17.41;100.00;92975.34;2065922;28;20049;-85
2023/08/25 00:16:53;;;;;;;4.55;2.58;;;;;;;17.44;100.00;92977.13;2059312;28;20503;-86
2023/08/25 00:17:54;;;;;;;2.70;2.50;;;;;;;17.45;100.00;92986.72;2067379;28;20022;-86
2023/08/25 00:18:55;;;;;;;4.00;2.75;;;;;;;17.58;100.00;92987.22;2064079;28;20034;-87
2023/08/25 00:19:56;;;;;;;9.50;2.38;;;;;;;17.67;100.00;92972.13;2069240;28;20034;-84
2023/08/25 00:20:57;;;;;;;6.00;2.72;;;;;;;17.52;100.00;92980.25;2065904;28;20076;-84
2023/08/25 00:21:58;;;;;;;3.50;2.65;;;;;;;17.54;100.00;92985.91;2064685;28;20431;-86
2023/08/25 00:22:59;;;;;;;7.82;2.65;;;;;;;17.54;100.00;92985.91;2073469;28;20026;-86
2023/08/25 00:24:00;;;;;;;6.40;2.50;;;;;;;17.53;100.00;92976.31;2074002;28;20037;-85
2023/08/25 00:25:03;;;;;;;4.88;2.70;;;;;;;17.61;100.00;92980.91;2071635;28;20100;-86
2023/08/25 00:26:03;;;;;;;5.82;2.60;;;;;;;17.59;100.00;92977.16;2057963;28;20023;-85
2023/08/25 00:27:05;;;;;;;6.22;2.60;;;;;;;17.59;100.00;92977.16;2080666;28;20789;-86
2023/08/25 00:28:06;;;;;;;4.10;2.80;;;;;;;17.53;100.00;92974.34;2062710;28;20113;-86
2023/08/25 00:29:07;;;;;;;11.38;2.60;;;;;;;17.51;100.00;92970.63;2069830;28;20193;-86
2023/08/25 00:30:10;;;;;;;5.38;2.65;;;;;;;17.51;100.00;92976.03;2059718;28;20038;-83
2023/08/25 00:31:11;;;;;;;9.20;2.65;;;;;;;17.45;100.00;92969.78;2073440;28;20088;-84
2023/08/25 00:32:12;;;;;;;3.25;2.58;;;;;;;17.45;100.00;92972.47;2073787;28;20026;-85
2023/08/25 00:33:13;;;;;;;3.95;2.88;;;;;;;17.46;100.00;92980.13;2077484;28;20017;-84
2023/08/25 00:34:14;;;;;;;6.85;2.80;;;;;;;17.48;100.00;92979.66;2073839;28;20332;-85
2023/08/25 00:35:15;;;;;;;7.78;2.85;;;;;;;17.42;100.00;92970.69;2066664;28;20065;-85
2023/08/25 00:36:17;;;;;;;8.07;2.70;;;;;;;17.31;100.00;92973.94;2057545;28;20050;-86
2023/08/25 00:37:18;;;;;;;3.35;2.65;;;;;;;17.27;100.00;92967.97;2057879;28;20066;-86
2023/08/25 00:38:19;;;;;;;5.05;2.58;;;;;;;17.30;100.00;92961.66;2073580;28;20376;-85
2023/08/25 00:39:20;;;;;;;5.97;2.55;;;;;;;17.19;100.00;92959.47;2065681;28;20100;-88
2023/08/25 00:40:21;;;;;;;7.10;2.40;;;;;;;17.36;100.00;92957.09;2073029;28;20040;-85
2023/08/25 00:41:22;;;;;;;4.97;2.70;;;;;;;17.32;100.00;92953.81;2071040;28;20033;-86
2023/08/25 00:42:23;;;;;;;8.75;2.67;;;;;;;17.39;100.00;92956.16;2063366;28;20022;-87
2023/08/25 00:43:24;;;;;;;6.97;2.50;;;;;;;17.38;100.00;92943.84;2088079;28;20025;-87
2023/08/25 00:44:25;;;;;;;4.18;2.80;;;;;;;17.27;100.00;92949.78;2073283;28;20064;-87
2023/08/25 00:45:26;;;;;;;2.83;2.50;;;;;;;17.32;100.00;92932.94;2073227;28;20033;-86
2023/08/25 00:46:28;;;;;;;2.85;2.60;;;;;;;17.43;100.00;92932.41;2081529;28;20025;-86
2023/08/25 00:47:30;;;;;;;4.18;2.42;;;;;;;17.54;100.00;92939.97;2073806;28;20037;-85
2023/08/25 00:48:31;;;;;;;6.45;2.50;;;;;;;17.51;100.00;92935.47;2073587;28;20036;-86
2023/08/25 00:49:34;;;;;;;4.70;2.30;;;;;;;17.46;100.00;92931.47;2074671;28;20029;-86
2023/08/25 00:50:35;;;;;;;2.95;2.30;;;;;;;17.36;100.00;92938.91;2057873;28;20027;-85
2023/08/25 00:51:37;;;;;;;6.65;2.95;;;;;;;17.35;100.00;92936.69;2061877;28;20026;-86
2023/08/25 00:52:40;;;;;;;3.95;2.50;;;;;;;17.43;100.00;92934.34;2065793;28;20030;-85
2023/08/25 00:53:43;;;;;;;4.65;2.60;;;;;;;17.51;100.00;92938.19;2058832;28;20022;-85
2023/08/25 00:54:44;;;;;;;3.10;2.55;;;;;;;17.46;100.00;92933.44;2068520;28;20026;-87
2023/08/25 00:55:46;;;;;;;4.40;2.60;;;;;;;17.43;100.00;92935.13;2065577;28;20023;-85
2023/08/25 00:56:49;;;;;;;5.68;3.15;;;;;;;17.58;100.00;92937.81;2065485;28;20335;-87
2023/08/25 00:57:51;;;;;;;8.25;2.40;;;;;;;17.59;100.00;92947.41;2064991;28;20448;-84
2023/08/25 00:58:54;;;;;;;3.83;2.40;;;;;;;17.56;100.00;92946.41;2057892;28;20034;-86
2023/08/25 00:59:55;;;;;;;8.00;2.47;;;;;;;17.66;100.00;92955.19;2073902;28;20036;-87
2023/08/25 01:00:58;;;;;;;5.30;2.63;;;;;;;17.59;100.00;92953.56;2073733;28;20021;-87
2023/08/25 01:02:00;;;;;;;6.68;2.53;;;;;;;17.74;100.00;92950.19;2071583;28;20021;-85
2023/08/25 01:03:01;;;;;;;5.65;2.55;;;;;;;17.77;100.00;92951.94;2071340;28;20105;-87
2023/08/25 01:04:03;;;;;;;6.43;2.55;;;;;;;17.70;100.00;92957.69;2066041;28;20365;-87
2023/08/25 01:05:04;;;;;;;4.80;2.60;;;;;;;17.60;100.00;92944.28;2060523;28;20125;-87
2023/08/25 01:06:06;;;;;;;5.20;2.80;;;;;;;17.61;100.00;92945.00;2065774;28;20113;-86
2023/08/25 01:07:07;;;;;;;5.05;2.70;;;;;;;17.66;100.00;92947.06;2065988;28;20086;-86
2023/08/25 01:08:08;;;;;;;6.85;2.92;;;;;;;17.69;100.00;92943.44;2060714;28;20484;-86
2023/08/25 01:09:12;;;;;;;7.20;3.20;;;;;;;17.57;100.00;92947.91;2066123;28;20030;-86
2023/08/25 01:10:15;;;;;;;3.10;2.83;;;;;;;17.49;100.00;92946.75;2067790;28;20030;-86
2023/08/25 01:11:35;;;;;;;3.20;2.85;;;;;;;17.55;100.00;92944.16;2067376;28;20072;-87
2023/08/25 01:13:02;;;;;;;5.65;2.80;;;;;;;17.55;100.00;92941.44;2068109;28;20026;-87
2023/08/25 01:14:14;;;;;;;3.45;2.72;;;;;;;17.46;100.00;92952.34;2064411;28;20120;-87
2023/08/25 01:15:22;;;;;;;3.17;2.40;;;;;;;17.52;100.00;92951.25;2082542;28;20030;-86
2023/08/25 01:16:40;;;;;;;6.15;2.95;;;;;;;17.55;100.00;92953.00;2073461;28;20375;-85
2023/08/25 01:18:02;;;;;;;6.32;2.80;;;;;;;17.36;100.00;92965.19;2077208;28;20025;-85
2023/08/25 01:19:24;;;;;;;6.05;3.00;;;;;;;17.16;100.00;92959.63;2069778;28;20084;-87
2023/08/25 01:20:26;;;;;;;4.00;2.40;;;;;;;17.17;100.00;92963.84;2069497;28;20037;-87
2023/08/25 01:21:27;;;;;;;5.78;2.80;;;;;;;17.16;100.00;92962.34;2071059;28;20484;-88
2023/08/25 01:22:46;;;;;;;6.68;2.83;;;;;;;17.24;100.00;92966.19;2076692;28;20029;-85
2023/08/25 01:24:17;;;;;;;5.35;3.22;;;;;;;17.20;100.00;92957.50;2081152;28;20026;-85
2023/08/25 01:25:25;;;;;;;5.43;3.00;;;;;;;17.28;100.00;92958.66;2080008;28;20083;-86
2023/08/25 01:26:29;;;;;;;3.85;2.85;;;;;;;17.39;100.00;92963.53;2075616;28;20034;-86
2023/08/25 01:27:31;;;;;;;4.43;2.88;;;;;;;17.43;100.00;92966.78;2072920;28;20464;-86
2023/08/25 01:28:32;;;;;;;5.47;3.20;;;;;;;17.43;100.00;92967.53;2081481;28;20043;-86
2023/08/25 01:29:35;;;;;;;3.28;2.80;;;;;;;17.41;100.00;92975.34;2081395;28;20029;-86
2023/08/25 01:30:36;;;;;;;9.00;3.20;;;;;;;17.35;100.00;92972.56;2073770;28;20029;-87
2023/08/25 01:31:37;;;;;;;3.72;2.75;;;;;;;17.28;100.00;92964.03;2073210;28;20057;-87
2023/08/25 01:32:38;;;;;;;6.00;3.10;;;;;;;17.20;100.00;92971.00;2065410;28;20038;-86
2023/08/25 01:33:44;;;;;;;3.83;2.88;;;;;;;17.29;100.00;92970.94;2066154;28;20073;-86
2023/08/25 01:34:46;;;;;;;7.20;3.05;;;;;;;17.37;100.00;92972.09;2067811;28;20053;-87
2023/08/25 01:36:11;;;;;;;4.32;2.75;;;;;;;17.32;100.00;92972.72;2073374;28;20021;-87
2023/08/25 01:37:32;;;;;;;5.85;3.10;;;;;;;17.45;100.00;92969.78;2060388;28;20022;-87
2023/08/25 01:38:43;;;;;;;3.60;2.80;;;;;;;17.45;100.00;92957.00;2060488;28;20022;-86
2023/08/25 01:39:47;;;;;;;4.18;3.03;;;;;;;17.47;100.00;92959.22;2071955;28;20101;-86
2023/08/25 01:40:56;;;;;;;5.80;3.15;;;;;;;17.40;100.00;92954.94;2070428;28;20024;-88
2023/08/25 01:42:03;;;;;;;4.80;2.92;;;;;;;17.43;100.00;92951.34;2063993;28;20026;-87
2023/08/25 01:43:08;;;;;;;3.70;2.92;;;;;;;17.33;100.00;92955.28;2059676;28;20049;-85
2023/08/25 01:44:13;;;;;;;3.40;3.10;;;;;;;17.37;100.00;92959.31;2073949;28;20037;-85
2023/08/25 01:45:17;;;;;;;6.10;2.70;;;;;;;17.42;100.00;92952.53;2073761;28;20053;-86
2023/08/25 01:46:20;;;;;;;7.13;2.85;;;;;;;17.43;100.00;92943.22;2073270;28;20021;-86
2023/08/25 01:47:24;;;;;;;6.75;3.25;;;;;;;17.59;100.00;92936.63;2073030;28;20025;-86
2023/08/25 01:48:28;;;;;;;6.28;3.08;;;;;;;17.69;100.00;92934.56;2073751;28;20034;-86
2023/08/25 01:49:30;;;;;;;7.38;3.28;;;;;;;17.65;100.00;92937.47;2075108;28;20033;-87
2023/08/25 01:50:35;;;;;;;6.63;3.10;;;;;;;17.52;100.00;92939.69;2080754;28;20382;-87
2023/08/25 01:51:36;;;;;;;7.35;2.60;;;;;;;17.49;100.00;92946.75;2067546;28;20125;-87
2023/08/25 01:52:37;;;;;;;3.88;2.78;;;;;;;17.45;100.00;92945.47;2072668;28;20057;-86
2023/08/25 01:53:38;;;;;;;7.90;3.13;;;;;;;17.39;100.00;92939.97;2074638;28;20105;-87
2023/08/25 01:54:39;;;;;;;4.00;2.70;;;;;;;17.43;100.00;92935.13;2081239;28;20039;-86
2023/08/25 01:55:40;;;;;;;4.88;2.80;;;;;;;17.38;100.00;92943.84;2081501;28;20025;-87
2023/08/25 01:56:41;;;;;;;3.63;2.78;;;;;;;17.44;100.00;92944.72;2072863;28;20026;-87
2023/08/25 01:57:42;;;;;;;3.42;2.58;;;;;;;17.20;100.00;92942.03;2071341;28;20470;-86
2023/08/25 01:58:43;;;;;;;5.75;2.72;;;;;;;17.19;100.00;92943.25;2065293;28;20034;-86
2023/08/25 01:59:44;;;;;;;5.30;2.88;;;;;;;17.34;100.00;92937.91;2069073;28;20022;-86
2023/08/25 02:00:45;;;;;;;6.22;3.20;;;;;;;17.30;100.00;92935.38;2073419;28;20025;-86
2023/08/25 02:01:46;;;;;;;5.57;3.17;;;;;;;17.27;100.00;92940.94;2057426;28;20109;-87
2023/08/25 02:02:47;;;;;;;6.15;3.28;;;;;;;17.28;100.00;92935.06;2074051;28;20072;-87
2023/08/25 02:03:48;;;;;;;5.57;2.60;;;;;;;17.35;100.00;92931.28;2081489;28;20060;-87
2023/08/25 02:04:49;;;;;;;4.60;3.05;;;;;;;17.39;100.00;92931.09;2061903;28;20479;-88
2023/08/25 02:05:52;;;;;;;10.43;3.00;;;;;;;17.33;100.00;92922.88;2056773;28;20114;-86
2023/08/25 02:06:53;;;;;;;3.83;2.42;;;;;;;17.30;100.00;92929.97;2073529;28;20029;-86
2023/08/25 02:07:54;;;;;;;5.85;3.05;;;;;;;17.32;100.00;92932.94;2076585;28;20076;-86
2023/08/25 02:08:55;;;;;;;4.75;2.40;;;;;;;17.29;100.00;92933.13;2073024;28;20076;-87
2023/08/25 02:09:56;;;;;;;5.47;2.53;;;;;;;17.22;100.00;92928.09;2058378;28;20092;-86
2023/08/25 02:10:57;;;;;;;7.18;2.92;;;;;;;17.21;100.00;92932.75;2065647;28;20071;-86
2023/08/25 02:11:58;;;;;;;6.82;2.78;;;;;;;17.19;100.00;92929.00;2065018;28;20471;-86
2023/08/25 02:12:59;;;;;;;2.67;2.38;;;;;;;17.30;100.00;92916.47;2056590;28;20046;-86
2023/08/25 02:14:00;;;;;;;5.65;2.67;;;;;;;17.28;100.00;92913.47;2071788;28;20033;-86
2023/08/25 02:15:01;;;;;;;7.40;2.58;;;;;;;17.26;100.00;92913.19;2057426;28;20034;-86
2023/08/25 02:16:02;;;;;;;4.60;2.70;;;;;;;17.26;100.00;92902.38;2062863;28;20105;-86
2023/08/25 02:17:03;;;;;;;5.80;2.83;;;;;;;17.16;100.00;92903.66;2055466;28;20522;-86
2023/08/25 02:18:05;;;;;;;3.47;2.53;;;;;;;17.05;100.00;92901.50;2052869;28;20078;-86
2023/08/25 02:19:06;;;;;;;8.07;2.80;;;;;;;17.23;100.00;92911.41;2063985;28;20090;-86
2023/08/25 02:20:07;;;;;;;3.85;2.80;;;;;;;17.26;100.00;92907.78;2064879;28;20123;-85
2023/08/25 02:22:43;;;;;;;3.95;2.63;;;;;;;17.19;100.00;92900.03;2146837;27;20117;-83
2023/08/25 02:23:44;;;;;;;5.13;2.70;;;;;;;17.36;100.00;92911.16;2121269;28;20038;-82
2023/08/25 02:24:45;;;;;;;7.00;2.83;;;;;;;17.35;100.00;92896.16;2112567;28;20066;-82
2023/08/25 02:25:46;;;;;;;6.45;2.83;;;;;;;17.38;100.00;92892.50;2112891;28;20047;-83
2023/08/25 02:26:47;;;;;;;5.15;2.67;;;;;;;17.26;100.00;92891.56;2102847;28;20111;-82
2023/08/25 02:27:48;;;;;;;8.18;2.90;;;;;;;17.26;100.00;92893.53;2104231;28;20103;-82
2023/08/25 02:28:49;;;;;;;6.70;2.60;;;;;;;17.25;100.00;92886.63;2112866;28;20081;-82
2023/08/25 02:29:50;;;;;;;5.53;2.53;;;;;;;17.26;100.00;92888.88;2112585;28;20027;-84
2023/08/25 02:30:51;;;;;;;4.95;2.88;;;;;;;17.22;100.00;92884.88;2112792;28;20028;-82
2023/08/25 02:31:52;;;;;;;5.55;3.08;;;;;;;17.33;100.00;92891.19;2121031;27;20114;-84
2023/08/25 02:32:54;;;;;;;6.43;2.75;;;;;;;17.37;100.00;92886.38;2120929;27;20383;-81
2023/08/25 02:33:55;;;;;;;4.72;2.80;;;;;;;17.38;100.00;92889.81;2121709;27;20023;-82
2023/08/25 02:34:56;;;;;;;7.10;3.03;;;;;;;17.29;100.00;92887.94;2118471;28;20089;-83
2023/08/25 02:35:57;;;;;;;6.07;3.13;;;;;;;17.37;100.00;92882.91;2106645;27;20469;-82
2023/08/25 02:36:58;;;;;;;5.03;2.53;;;;;;;17.26;100.00;92874.63;2112945;28;20035;-82
2023/08/25 02:38:05;;;;;;;6.00;3.08;;;;;;;17.21;100.00;92873.31;2121074;27;20028;-82
2023/08/25 02:39:06;;;;;;;5.63;2.60;;;;;;;17.25;100.00;92875.81;2105331;28;20020;-84
2023/08/25 02:40:09;;;;;;;5.95;2.70;;;;;;;17.23;100.00;92873.59;2104413;28;20016;-82
2023/08/25 02:41:10;;;;;;;4.60;2.80;;;;;;;17.26;100.00;92861.13;2112995;27;20024;-83
2023/08/25 02:42:12;;;;;;;4.85;3.00;;;;;;;17.21;100.00;92872.53;2125157;27;20124;-83
2023/08/25 02:43:13;;;;;;;5.50;3.10;;;;;;;17.07;100.00;92865.91;2127493;27;20059;-86
2023/08/25 02:44:14;;;;;;;6.65;3.00;;;;;;;17.15;100.00;92869.75;2112920;27;20035;-82
2023/08/25 02:45:15;;;;;;;4.47;2.83;;;;;;;17.18;100.00;92873.50;2111855;28;20380;-83
2023/08/25 02:46:16;;;;;;;7.78;3.15;;;;;;;17.13;100.00;92864.09;2112777;28;20138;-81
2023/08/25 02:47:17;;;;;;;4.10;2.50;;;;;;;17.20;100.00;92865.66;2104167;28;20020;-82
2023/08/25 02:48:18;;;;;;;7.38;2.75;;;;;;;17.17;100.00;92863.91;2106762;27;20562;-81
2023/08/25 02:49:19;;;;;;;5.15;2.70;;;;;;;17.15;100.00;92863.59;2112353;28;20100;-82
2023/08/25 02:50:21;;;;;;;7.30;2.80;;;;;;;17.15;100.00;92855.50;2121184;27;20023;-82
2023/08/25 02:51:22;;;;;;;4.22;2.70;;;;;;;17.14;100.00;92851.31;2120884;28;20031;-83
2023/08/25 02:52:23;;;;;;;4.45;2.95;;;;;;;17.19;100.00;92851.41;2112284;28;20044;-81
2023/08/25 02:53:25;;;;;;;7.65;2.80;;;;;;;17.07;100.00;92849.72;2111782;28;20036;-83
2023/08/25 02:54:26;;;;;;;9.93;3.47;;;;;;;17.10;100.00;92846.84;2121045;27;20571;-82
2023/08/25 02:55:27;;;;;;;6.75;3.05;;;;;;;17.06;100.00;92851.66;2113026;28;20461;-83
2023/08/25 02:56:28;;;;;;;13.88;3.42;;;;;;;17.08;100.00;92849.28;2112549;28;20024;-83
2023/08/25 02:57:29;;;;;;;8.32;3.20;;;;;;;17.13;100.00;92849.84;2112332;27;20024;-85
2023/08/25 02:58:30;;;;;;;9.60;3.10;;;;;;;17.18;100.00;92841.09;2112821;28;20448;-83
2023/08/25 02:59:31;;;;;;;3.22;2.95;;;;;;;17.15;100.00;92831.94;2104266;28;20048;-82
2023/08/25 03:00:32;;;;;;;5.90;2.70;;;;;;;17.22;100.00;92836.25;2112733;28;20043;-82
2023/08/25 03:01:33;;;;;;;5.82;2.90;;;;;;;17.26;100.00;92831.41;2127972;27;20604;-83
2023/08/25 03:02:34;;;;;;;8.32;3.30;;;;;;;17.10;100.00;92833.34;2129264;27;20027;-83
2023/08/25 03:03:35;;;;;;;8.73;3.10;;;;;;;17.22;100.00;92825.44;2129615;27;20041;-82
2023/08/25 03:04:36;;;;;;;6.57;3.30;;;;;;;17.17;100.00;92815.28;2120679;27;20027;-83
2023/08/25 03:05:40;;;;;;;9.18;2.90;;;;;;;17.07;100.00;92820.75;2112562;28;20027;-83
2023/08/25 03:06:41;;;;;;;6.85;2.88;;;;;;;17.11;100.00;92813.22;2104444;28;20024;-84
2023/08/25 03:07:42;;;;;;;5.72;3.05;;;;;;;17.10;100.00;92802.88;2120693;27;20019;-82
2023/08/25 03:08:45;;;;;;;4.82;3.30;;;;;;;17.00;100.00;92807.63;2112641;28;20813;-83
2023/08/25 03:09:46;;;;;;;5.53;3.05;;;;;;;17.34;100.00;92814.38;2104434;28;20024;-82
2023/08/25 03:10:47;;;;;;;4.43;3.40;;;;;;;17.43;100.00;92812.75;2112647;28;20376;-82
2023/08/25 03:11:48;;;;;;;6.07;2.90;;;;;;;17.18;100.00;92814.06;2113367;27;20047;-82
2023/08/25 03:12:49;;;;;;;6.30;3.05;;;;;;;17.28;100.00;92813.50;2106851;28;20077;-80
2023/08/25 03:13:57;;;;;;;5.90;3.05;;;;;;;17.30;100.00;92803.00;2104320;28;20074;-82
2023/08/25 03:14:58;;;;;;;3.60;2.80;;;;;;;17.24;100.00;92796.72;2105932;28;20469;-85
2023/08/25 03:16:01;;;;;;;7.88;3.67;;;;;;;17.31;100.00;92803.72;2112159;28;20019;-83
2023/08/25 03:17:02;;;;;;;6.90;3.30;;;;;;;17.25;100.00;92805.59;2107459;28;20021;-81
2023/08/25 03:18:03;;;;;;;5.53;3.22;;;;;;;17.20;100.00;92798.88;2112075;28;20521;-82
2023/08/25 03:19:04;;;;;;;8.13;3.25;;;;;;;17.17;100.00;92797.13;2115979;27;20465;-84
2023/08/25 03:20:06;;;;;;;5.30;2.97;;;;;;;17.17;100.00;92799.09;2120638;28;20035;-83
2023/08/25 03:21:07;;;;;;;6.25;3.30;;;;;;;17.26;100.00;92788.94;2112261;28;20380;-83
2023/08/25 03:22:09;;;;;;;5.28;3.47;;;;;;;17.20;100.00;92788.06;2103909;28;20121;-83
2023/08/25 03:23:10;;;;;;;3.33;2.78;;;;;;;17.18;100.00;92787.06;2103729;28;20097;-82
2023/08/25 03:24:11;;;;;;;5.13;2.80;;;;;;;17.14;100.00;92792.66;2103897;28;20035;-82
2023/08/25 03:25:12;;;;;;;5.30;3.17;;;;;;;17.19;100.00;92794.69;2100139;28;20020;-83
2023/08/25 03:26:13;;;;;;;4.80;3.28;;;;;;;17.16;100.00;92792.91;2112006;28;20024;-81
2023/08/25 03:27:14;;;;;;;10.25;3.10;;;;;;;17.05;100.00;92793.47;2112376;28;20459;-82
2023/08/25 03:28:15;;;;;;;8.02;3.35;;;;;;;17.07;100.00;92790.31;2103550;28;20031;-83
2023/08/25 03:29:16;;;;;;;5.43;3.30;;;;;;;17.05;100.00;92785.38;2103579;28;20496;-82
2023/08/25 03:30:17;;;;;;;6.90;3.13;;;;;;;16.96;100.00;92788.16;2104140;28;20544;-82
2023/08/25 03:31:18;;;;;;;4.32;2.80;;;;;;;16.95;100.00;92792.09;2112155;28;20486;-82
2023/08/25 03:32:19;;;;;;;7.13;3.00;;;;;;;17.09;100.00;92793.31;2104234;28;20118;-84
2023/08/25 03:33:20;;;;;;;4.43;3.15;;;;;;;17.12;100.00;92784.28;2094850;28;20021;-82
2023/08/25 03:34:21;;;;;;;9.20;3.13;;;;;;;17.09;100.00;92788.63;2089289;28;20036;-81
2023/08/25 03:35:21;;;;;;;8.65;2.90;;;;;;;17.05;100.00;92779.22;2090178;28;20024;-80
2023/08/25 03:36:22;;;;;;;10.02;3.17;;;;;;;17.07;100.00;92784.91;2098261;28;20087;-83
2023/08/25 03:37:23;;;;;;;7.65;3.22;;;;;;;17.02;100.00;92780.91;2098382;28;20022;-84
2023/08/25 03:38:24;;;;;;;9.73;3.50;;;;;;;17.03;100.00;92787.03;2098028;28;20031;-80
2023/08/25 03:39:26;;;;;;;6.75;3.15;;;;;;;17.04;100.00;92781.19;2089848;28;20060;-81
2023/08/25 03:40:27;;;;;;;4.32;3.20;;;;;;;16.97;100.00;92776.16;2090359;28;20481;-82
2023/08/25 03:41:31;;;;;;;4.88;3.03;;;;;;;17.00;100.00;92777.19;2114945;28;20019;-82
2023/08/25 03:42:39;;;;;;;10.30;3.05;;;;;;;17.01;100.00;92778.66;2106399;28;20404;-81
2023/08/25 03:43:40;;;;;;;7.20;3.28;;;;;;;17.02;100.00;92774.75;2091058;28;20183;-83
2023/08/25 03:44:41;;;;;;;3.75;2.72;;;;;;;16.91;100.00;92777.28;2094005;28;20128;-83
2023/08/25 03:45:42;;;;;;;6.20;2.95;;;;;;;17.07;100.00;92780.25;2106725;28;20190;-83
2023/08/25 03:46:44;;;;;;;7.22;3.53;;;;;;;17.26;100.00;92777.38;2098147;28;20107;-84
2023/08/25 03:47:45;;;;;;;7.13;3.35;;;;;;;17.25;100.00;92779.34;2098400;28;20032;-82
2023/08/25 03:48:46;;;;;;;5.75;3.00;;;;;;;17.24;100.00;92783.22;2115117;28;20023;-81
2023/08/25 03:49:48;;;;;;;5.90;3.20;;;;;;;17.20;100.00;92771.88;2106289;28;20151;-82
2023/08/25 03:50:49;;;;;;;6.57;3.15;;;;;;;17.18;100.00;92771.59;2090178;28;20076;-80
2023/08/25 03:51:50;;;;;;;6.28;2.92;;;;;;;17.21;100.00;92772.59;2089497;28;20036;-81
2023/08/25 03:52:52;;;;;;;9.45;3.15;;;;;;;17.25;100.00;92771.22;2089804;28;20020;-82
2023/08/25 03:53:53;;;;;;;5.70;3.03;;;;;;;17.22;100.00;92768.72;2098884;28;20042;-81
2023/08/25 03:54:54;;;;;;;6.82;2.97;;;;;;;17.29;100.00;92771.75;2110629;28;20024;-84
2023/08/25 03:55:55;;;;;;;5.78;2.90;;;;;;;17.32;100.00;92753.88;2106142;28;20699;-82
2023/08/25 03:56:57;;;;;;;5.43;2.65;;;;;;;17.20;100.00;92752.97;2098281;28;20102;-82
2023/08/25 03:57:58;;;;;;;7.65;3.03;;;;;;;17.23;100.00;92757.44;2094932;28;20065;-81
2023/08/25 03:58:59;;;;;;;7.38;3.63;;;;;;;17.26;100.00;92758.47;2098337;28;20299;-82
2023/08/25 03:59:59;;;;;;;5.43;3.30;;;;;;;17.25;100.00;92754.25;2106175;28;20027;-83
2023/08/25 04:01:00;;;;;;;10.63;3.17;;;;;;;17.27;100.00;92747.19;2097664;28;20024;-84
2023/08/25 04:02:03;;;;;;;7.30;2.85;;;;;;;17.31;100.00;92747.75;2093028;28;20047;-82
2023/08/25 04:03:07;;;;;;;7.30;3.75;;;;;;;17.27;100.00;92746.44;2106733;28;20046;-82
2023/08/25 04:04:08;;;;;;;9.32;3.25;;;;;;;17.26;100.00;92745.69;2106829;28;20030;-81
2023/08/25 04:05:10;;;;;;;10.50;3.20;;;;;;;17.30;100.00;92748.97;2101802;28;20023;-83
2023/08/25 04:06:11;;;;;;;11.75;3.15;;;;;;;17.29;100.00;92739.34;2100245;28;20024;-83
2023/08/25 04:07:13;;;;;;;6.03;3.10;;;;;;;17.32;100.00;92743.09;2093616;28;20039;-84
2023/08/25 04:08:14;;;;;;;10.57;3.10;;;;;;;17.20;100.00;92730.59;2087419;28;20512;-84
2023/08/25 04:09:15;;;;;;;7.63;3.10;;;;;;;17.15;100.00;92732.00;2098093;28;20064;-83
2023/08/25 04:10:16;;;;;;;6.65;3.25;;;;;;;17.17;100.00;92731.56;2106570;28;20076;-83
2023/08/25 04:11:17;;;;;;;9.52;3.25;;;;;;;17.19;100.00;92723.72;2097795;28;20078;-82
2023/08/25 04:12:18;;;;;;;5.93;3.53;;;;;;;17.15;100.00;92732.00;2095341;28;20020;-84
2023/08/25 04:13:19;;;;;;;4.60;3.20;;;;;;;17.10;100.00;92730.72;2091489;28;20020;-83
2023/08/25 04:14:20;;;;;;;9.55;3.58;;;;;;;17.17;100.00;92731.56;2102078;28;20413;-82
2023/08/25 04:15:21;;;;;;;7.28;3.30;;;;;;;17.20;100.00;92730.59;2103837;28;20028;-84
2023/08/25 04:16:22;;;;;;;9.35;3.53;;;;;;;17.25;100.00;92733.41;2105852;28;20028;-83
2023/08/25 04:17:23;;;;;;;8.77;3.67;;;;;;;17.25;100.00;92732.66;2112514;28;20019;-82
2023/08/25 04:18:25;;;;;;;6.20;3.60;;;;;;;17.17;100.00;92737.69;2097601;28;20056;-81
2023/08/25 04:19:26;;;;;;;6.15;3.30;;;;;;;17.06;100.00;92743.66;2097861;28;20520;-82
2023/08/25 04:20:27;;;;;;;6.93;3.97;;;;;;;17.07;100.00;92733.59;2106265;28;20741;-84
2023/08/25 04:21:28;;;;;;;4.45;3.10;;;;;;;17.13;100.00;92742.53;2097690;28;20044;-84
2023/08/25 04:22:29;;;;;;;6.63;3.17;;;;;;;17.15;100.00;92739.38;2106089;28;20043;-81
2023/08/25 04:23:30;;;;;;;6.03;2.85;;;;;;;17.01;100.00;92746.28;2106021;28;20020;-83
2023/08/25 04:24:31;;;;;;;8.40;3.25;;;;;;;17.03;100.00;92738.44;2105993;28;20059;-84
2023/08/25 04:25:32;;;;;;;5.63;3.03;;;;;;;17.16;100.00;92732.75;2097914;28;20032;-82
2023/08/25 04:26:33;;;;;;;5.13;2.95;;;;;;;17.13;100.00;92733.69;2114354;28;20087;-83
2023/08/25 04:27:34;;;;;;;5.00;3.50;;;;;;;17.21;100.00;92727.47;2106046;28;20024;-83
2023/08/25 04:28:35;;;;;;;5.55;3.40;;;;;;;17.14;100.00;92730.53;2106640;28;20032;-83
2023/08/25 04:29:36;;;;;;;4.43;2.97;;;;;;;17.20;100.00;92733.31;2097706;28;20393;-82
2023/08/25 04:30:37;;;;;;;7.75;3.17;;;;;;;17.22;100.00;92733.59;2106566;28;20385;-82
2023/08/25 04:31:38;;;;;;;7.55;2.92;;;;;;;17.20;100.00;92733.31;2105809;28;20116;-82
2023/08/25 04:32:39;;;;;;;9.05;3.35;;;;;;;17.22;100.00;92726.25;2105785;28;20085;-82
2023/08/25 04:33:40;;;;;;;4.32;2.83;;;;;;;17.25;100.00;92735.34;2089857;28;20095;-86
2023/08/25 04:34:41;;;;;;;3.33;3.03;;;;;;;17.18;100.00;92733.78;2106210;28;20059;-82
2023/08/25 04:35:42;;;;;;;9.65;3.10;;;;;;;17.18;100.00;92735.75;2097984;28;20031;-83
2023/08/25 04:36:45;;;;;;;5.45;2.85;;;;;;;17.20;100.00;92742.16;2095713;28;20074;-82
2023/08/25 04:37:50;;;;;;;6.88;3.22;;;;;;;17.16;100.00;92740.84;2097863;28;20024;-84
2023/08/25 04:38:51;;;;;;;6.70;2.97;;;;;;;17.10;100.00;92727.25;2099079;28;20033;-82
2023/08/25 04:39:54;;;;;;;4.22;2.70;;;;;;;17.16;100.00;92730.06;2105699;28;20024;-82
2023/08/25 04:40:55;;;;;;;6.38;3.53;;;;;;;17.32;100.00;92730.31;2104164;28;20024;-85
2023/08/25 04:41:56;;;;;;;5.20;3.20;;;;;;;17.18;100.00;92724.94;2097338;28;20031;-81
2023/08/25 04:42:57;;;;;;;6.85;3.42;;;;;;;17.20;100.00;92730.59;2097554;28;20040;-82
2023/08/25 04:43:59;;;;;;;6.38;3.03;;;;;;;17.23;100.00;92730.44;2114619;28;20108;-85
2023/08/25 04:45:00;;;;;;;5.05;3.10;;;;;;;17.20;100.00;92725.94;2113986;28;20408;-83
2023/08/25 04:46:01;;;;;;;3.60;2.80;;;;;;;17.17;100.00;92728.84;2104838;28;20027;-85
2023/08/25 04:47:02;;;;;;;5.32;3.17;;;;;;;17.15;100.00;92726.59;2089474;28;20028;-83
2023/08/25 04:48:04;;;;;;;4.55;2.83;;;;;;;17.20;100.00;92734.03;2089214;28;20115;-85
2023/08/25 04:49:05;;;;;;;4.93;2.90;;;;;;;17.25;100.00;92728.00;2101447;28;20172;-83
2023/08/25 04:50:07;;;;;;;3.20;2.78;;;;;;;17.17;100.00;92734.25;2105835;28;20065;-82
2023/08/25 04:51:08;;;;;;;5.60;2.90;;;;;;;17.20;100.00;92728.66;2095548;28;20024;-84